Arena, Wisconsin
Current Conditions -  °F | °C
As of 1:56 AM on Monday 26 Jan 2015 (Local Time) from KLNR Reporting Station
Clear Clear  
Wind Chill: -11°   Ceiling: Unl
Heat Index: -11°   Visibility: 10mi
Dew Point: -14°   Wind: 0mph
Humidity: 80%   Direction: NA
Pressure: 30.03"   Gusts: NA
Location:  43.17°N, 89.91°W
Report Text: KLNR 260756Z AUTO 00000KT 10SM CLR M11/M14 A3003 RMK AO2 SLP175 T11111139
Loading
Personal Weather Stations






























Interactive Weather Map New forecast layout! Learn more

10-Day Weather Forecast

Advertisements
Track Severe Weather on mobile